sensor_id;sensor_type;location;lat;lon;timestamp;P1;durP1;ratioP1;P2;durP2;ratioP2
33266;SDS011;19638;49.080;11.896;2023-04-06T00:00:28;10.37;;;6.47;;
33266;SDS011;19638;49.080;11.896;2023-04-06T00:04:32;12.63;;;6.33;;
33266;SDS011;19638;49.080;11.896;2023-04-06T00:08:34;11.57;;;5.87;;
33266;SDS011;19638;49.080;11.896;2023-04-06T00:12:40;11.40;;;5.73;;
33266;SDS011;19638;49.080;11.896;2023-04-06T00:16:46;10.20;;;5.57;;
33266;SDS011;19638;49.080;11.896;2023-04-06T00:20:52;9.27;;;5.03;;
33266;SDS011;19638;49.080;11.896;2023-04-06T00:24:55;9.90;;;5.83;;
33266;SDS011;19638;49.080;11.896;2023-04-06T00:28:59;8.90;;;6.00;;
33266;SDS011;19638;49.080;11.896;2023-04-06T00:33:08;9.80;;;6.17;;
33266;SDS011;19638;49.080;11.896;2023-04-06T00:37:11;12.43;;;5.97;;
33266;SDS011;19638;49.080;11.896;2023-04-06T00:41:19;13.83;;;6.83;;
33266;SDS011;19638;49.080;11.896;2023-04-06T00:45:25;12.50;;;6.97;;
33266;SDS011;19638;49.080;11.896;2023-04-06T00:49:32;11.07;;;6.63;;
33266;SDS011;19638;49.080;11.896;2023-04-06T00:53:35;10.97;;;5.63;;
33266;SDS011;19638;49.080;11.896;2023-04-06T00:57:38;9.47;;;5.90;;
33266;SDS011;19638;49.080;11.896;2023-04-06T01:01:49;12.90;;;6.20;;
33266;SDS011;19638;49.080;11.896;2023-04-06T01:05:54;11.80;;;6.27;;
33266;SDS011;19638;49.080;11.896;2023-04-06T01:10:02;14.90;;;5.83;;
33266;SDS011;19638;49.080;11.896;2023-04-06T01:14:06;7.83;;;5.70;;
33266;SDS011;19638;49.080;11.896;2023-04-06T01:18:11;11.13;;;5.77;;
33266;SDS011;19638;49.080;11.896;2023-04-06T01:22:18;9.67;;;5.97;;
33266;SDS011;19638;49.080;11.896;2023-04-06T01:26:21;9.40;;;5.63;;
33266;SDS011;19638;49.080;11.896;2023-04-06T01:30:24;10.23;;;6.47;;
33266;SDS011;19638;49.080;11.896;2023-04-06T01:34:27;9.97;;;5.70;;
33266;SDS011;19638;49.080;11.896;2023-04-06T01:38:36;9.60;;;5.70;;
33266;SDS011;19638;49.080;11.896;2023-04-06T01:42:39;12.00;;;6.30;;
33266;SDS011;19638;49.080;11.896;2023-04-06T01:46:45;10.73;;;6.47;;
33266;SDS011;19638;49.080;11.896;2023-04-06T01:50:50;15.70;;;6.30;;
33266;SDS011;19638;49.080;11.896;2023-04-06T01:54:55;14.53;;;5.80;;
33266;SDS011;19638;49.080;11.896;2023-04-06T01:59:00;10.53;;;5.90;;
33266;SDS011;19638;49.080;11.896;2023-04-06T02:03:08;12.67;;;6.23;;
33266;SDS011;19638;49.080;11.896;2023-04-06T02:07:12;11.33;;;7.17;;
33266;SDS011;19638;49.080;11.896;2023-04-06T02:11:16;12.30;;;6.03;;
33266;SDS011;19638;49.080;11.896;2023-04-06T02:15:27;9.90;;;5.50;;
33266;SDS011;19638;49.080;11.896;2023-04-06T02:19:32;8.17;;;5.87;;
33266;SDS011;19638;49.080;11.896;2023-04-06T02:23:35;11.50;;;5.87;;
33266;SDS011;19638;49.080;11.896;2023-04-06T02:27:40;11.00;;;6.57;;
33266;SDS011;19638;49.080;11.896;2023-04-06T02:31:46;13.10;;;7.20;;
33266;SDS011;19638;49.080;11.896;2023-04-06T02:35:52;11.00;;;6.40;;
33266;SDS011;19638;49.080;11.896;2023-04-06T02:39:55;9.10;;;5.33;;
33266;SDS011;19638;49.080;11.896;2023-04-06T02:44:02;12.30;;;6.20;;
33266;SDS011;19638;49.080;11.896;2023-04-06T02:48:15;11.53;;;5.53;;
33266;SDS011;19638;49.080;11.896;2023-04-06T02:52:19;9.60;;;5.53;;
33266;SDS011;19638;49.080;11.896;2023-04-06T02:56:23;8.97;;;5.97;;
33266;SDS011;19638;49.080;11.896;2023-04-06T03:04:41;9.60;;;5.93;;
33266;SDS011;19638;49.080;11.896;2023-04-06T03:08:45;11.77;;;6.30;;
33266;SDS011;19638;49.080;11.896;2023-04-06T03:12:48;8.33;;;5.63;;
33266;SDS011;19638;49.080;11.896;2023-04-06T03:16:51;12.93;;;5.80;;
33266;SDS011;19638;49.080;11.896;2023-04-06T03:20:57;13.70;;;6.03;;
33266;SDS011;19638;49.080;11.896;2023-04-06T03:25:06;11.13;;;6.10;;
33266;SDS011;19638;49.080;11.896;2023-04-06T03:29:09;10.20;;;5.53;;
33266;SDS011;19638;49.080;11.896;2023-04-06T03:33:12;12.77;;;6.87;;
33266;SDS011;19638;49.080;11.896;2023-04-06T03:37:19;15.10;;;6.17;;
33266;SDS011;19638;49.080;11.896;2023-04-06T03:41:24;11.20;;;5.70;;
33266;SDS011;19638;49.080;11.896;2023-04-06T03:45:27;11.60;;;6.70;;
33266;SDS011;19638;49.080;11.896;2023-04-06T03:49:33;10.13;;;6.43;;
33266;SDS011;19638;49.080;11.896;2023-04-06T03:53:42;11.87;;;5.77;;
33266;SDS011;19638;49.080;11.896;2023-04-06T03:57:45;9.57;;;6.33;;
33266;SDS011;19638;49.080;11.896;2023-04-06T04:01:49;14.10;;;6.30;;
33266;SDS011;19638;49.080;11.896;2023-04-06T04:05:58;11.63;;;6.07;;
33266;SDS011;19638;49.080;11.896;2023-04-06T04:10:05;9.80;;;5.83;;
33266;SDS011;19638;49.080;11.896;2023-04-06T04:14:09;15.70;;;6.10;;
33266;SDS011;19638;49.080;11.896;2023-04-06T04:18:19;13.43;;;6.20;;
33266;SDS011;19638;49.080;11.896;2023-04-06T04:22:26;12.33;;;6.83;;
33266;SDS011;19638;49.080;11.896;2023-04-06T04:26:31;10.47;;;6.13;;
33266;SDS011;19638;49.080;11.896;2023-04-06T04:30:40;10.43;;;6.17;;
33266;SDS011;19638;49.080;11.896;2023-04-06T04:34:44;11.10;;;6.40;;
33266;SDS011;19638;49.080;11.896;2023-04-06T04:38:48;17.83;;;6.73;;
33266;SDS011;19638;49.080;11.896;2023-04-06T04:42:54;15.97;;;7.27;;
33266;SDS011;19638;49.080;11.896;2023-04-06T04:46:59;13.03;;;6.63;;
33266;SDS011;19638;49.080;11.896;2023-04-06T04:51:06;14.97;;;6.33;;
33266;SDS011;19638;49.080;11.896;2023-04-06T04:55:12;12.67;;;6.87;;
33266;SDS011;19638;49.080;11.896;2023-04-06T04:59:23;12.97;;;6.43;;
33266;SDS011;19638;49.080;11.896;2023-04-06T05:03:27;14.97;;;6.63;;
33266;SDS011;19638;49.080;11.896;2023-04-06T05:07:30;18.60;;;7.07;;
33266;SDS011;19638;49.080;11.896;2023-04-06T05:11:33;18.67;;;7.63;;
33266;SDS011;19638;49.080;11.896;2023-04-06T05:15:37;13.30;;;7.43;;
33266;SDS011;19638;49.080;11.896;2023-04-06T05:19:43;13.87;;;7.20;;
33266;SDS011;19638;49.080;11.896;2023-04-06T05:23:46;16.27;;;7.20;;
33266;SDS011;19638;49.080;11.896;2023-04-06T05:27:49;13.50;;;6.97;;
33266;SDS011;19638;49.080;11.896;2023-04-06T05:31:55;12.67;;;6.97;;
33266;SDS011;19638;49.080;11.896;2023-04-06T05:35:58;17.77;;;8.03;;
33266;SDS011;19638;49.080;11.896;2023-04-06T05:40:03;14.50;;;7.60;;
33266;SDS011;19638;49.080;11.896;2023-04-06T05:44:08;22.87;;;7.20;;
33266;SDS011;19638;49.080;11.896;2023-04-06T05:48:15;14.30;;;7.97;;
33266;SDS011;19638;49.080;11.896;2023-04-06T05:52:21;14.63;;;7.40;;
33266;SDS011;19638;49.080;11.896;2023-04-06T05:56:29;14.77;;;7.23;;
33266;SDS011;19638;49.080;11.896;2023-04-06T06:00:33;13.97;;;8.17;;
33266;SDS011;19638;49.080;11.896;2023-04-06T06:04:37;20.10;;;8.50;;
33266;SDS011;19638;49.080;11.896;2023-04-06T06:08:40;12.53;;;6.80;;
33266;SDS011;19638;49.080;11.896;2023-04-06T06:12:43;12.20;;;7.30;;
33266;SDS011;19638;49.080;11.896;2023-04-06T06:16:48;12.57;;;7.40;;
33266;SDS011;19638;49.080;11.896;2023-04-06T06:20:53;15.97;;;8.83;;
33266;SDS011;19638;49.080;11.896;2023-04-06T06:25:01;15.67;;;9.50;;
33266;SDS011;19638;49.080;11.896;2023-04-06T06:29:07;17.67;;;8.97;;
33266;SDS011;19638;49.080;11.896;2023-04-06T06:33:10;15.53;;;8.30;;
33266;SDS011;19638;49.080;11.896;2023-04-06T06:37:18;16.30;;;8.63;;
33266;SDS011;19638;49.080;11.896;2023-04-06T06:41:22;16.10;;;7.37;;
33266;SDS011;19638;49.080;11.896;2023-04-06T06:45:25;14.83;;;6.73;;
33266;SDS011;19638;49.080;11.896;2023-04-06T06:49:30;15.17;;;7.60;;
33266;SDS011;19638;49.080;11.896;2023-04-06T06:53:35;14.03;;;7.23;;
33266;SDS011;19638;49.080;11.896;2023-04-06T06:57:38;11.73;;;7.23;;
33266;SDS011;19638;49.080;11.896;2023-04-06T07:01:43;14.70;;;6.83;;
33266;SDS011;19638;49.080;11.896;2023-04-06T07:05:58;13.83;;;7.23;;
33266;SDS011;19638;49.080;11.896;2023-04-06T07:10:03;12.17;;;6.30;;
33266;SDS011;19638;49.080;11.896;2023-04-06T07:14:09;11.67;;;6.53;;
33266;SDS011;19638;49.080;11.896;2023-04-06T07:18:13;11.70;;;7.27;;
33266;SDS011;19638;49.080;11.896;2023-04-06T07:22:16;8.93;;;6.10;;
33266;SDS011;19638;49.080;11.896;2023-04-06T07:26:21;10.00;;;5.87;;
33266;SDS011;19638;49.080;11.896;2023-04-06T07:30:28;11.97;;;6.37;;
33266;SDS011;19638;49.080;11.896;2023-04-06T07:34:37;16.87;;;6.57;;
33266;SDS011;19638;49.080;11.896;2023-04-06T07:38:40;11.83;;;5.60;;
33266;SDS011;19638;49.080;11.896;2023-04-06T07:42:44;9.03;;;5.87;;
33266;SDS011;19638;49.080;11.896;2023-04-06T07:46:50;9.33;;;5.70;;
33266;SDS011;19638;49.080;11.896;2023-04-06T07:51:00;9.77;;;6.00;;
33266;SDS011;19638;49.080;11.896;2023-04-06T07:55:05;8.40;;;5.50;;
33266;SDS011;19638;49.080;11.896;2023-04-06T07:59:13;11.10;;;5.63;;
33266;SDS011;19638;49.080;11.896;2023-04-06T08:03:17;10.13;;;6.27;;
33266;SDS011;19638;49.080;11.896;2023-04-06T08:07:22;8.83;;;5.53;;
33266;SDS011;19638;49.080;11.896;2023-04-06T08:11:26;9.37;;;6.13;;
33266;SDS011;19638;49.080;11.896;2023-04-06T08:15:32;9.97;;;5.90;;
33266;SDS011;19638;49.080;11.896;2023-04-06T08:19:36;11.37;;;5.87;;
33266;SDS011;19638;49.080;11.896;2023-04-06T08:23:41;11.90;;;6.50;;
33266;SDS011;19638;49.080;11.896;2023-04-06T08:27:47;7.37;;;5.80;;
33266;SDS011;19638;49.080;11.896;2023-04-06T08:31:51;14.87;;;6.63;;
33266;SDS011;19638;49.080;11.896;2023-04-06T08:35:54;13.00;;;6.28;;
33266;SDS011;19638;49.080;11.896;2023-04-06T08:39:57;10.50;;;5.50;;
33266;SDS011;19638;49.080;11.896;2023-04-06T08:44:01;11.90;;;6.57;;
33266;SDS011;19638;49.080;11.896;2023-04-06T08:48:07;9.20;;;5.60;;
33266;SDS011;19638;49.080;11.896;2023-04-06T08:52:11;8.00;;;5.65;;
33266;SDS011;19638;49.080;11.896;2023-04-06T08:56:17;8.60;;;5.90;;
33266;SDS011;19638;49.080;11.896;2023-04-06T09:00:20;10.20;;;5.38;;
33266;SDS011;19638;49.080;11.896;2023-04-06T09:04:27;9.93;;;6.07;;
33266;SDS011;19638;49.080;11.896;2023-04-06T09:08:31;10.05;;;5.88;;
33266;SDS011;19638;49.080;11.896;2023-04-06T09:12:35;15.30;;;6.65;;
33266;SDS011;19638;49.080;11.896;2023-04-06T09:16:44;9.93;;;5.80;;
33266;SDS011;19638;49.080;11.896;2023-04-06T09:20:57;12.48;;;5.85;;
33266;SDS011;19638;49.080;11.896;2023-04-06T09:25:01;7.15;;;5.25;;
33266;SDS011;19638;49.080;11.896;2023-04-06T09:29:05;9.70;;;6.18;;
33266;SDS011;19638;49.080;11.896;2023-04-06T09:33:08;10.93;;;6.05;;
33266;SDS011;19638;49.080;11.896;2023-04-06T09:37:14;8.25;;;5.25;;
33266;SDS011;19638;49.080;11.896;2023-04-06T09:41:22;9.25;;;5.45;;
33266;SDS011;19638;49.080;11.896;2023-04-06T09:45:30;7.70;;;5.32;;
33266;SDS011;19638;49.080;11.896;2023-04-06T09:49:33;7.00;;;5.85;;
33266;SDS011;19638;49.080;11.896;2023-04-06T09:53:38;8.38;;;5.78;;
33266;SDS011;19638;49.080;11.896;2023-04-06T09:57:48;7.82;;;5.38;;
33266;SDS011;19638;49.080;11.896;2023-04-06T10:01:55;8.05;;;5.72;;
33266;SDS011;19638;49.080;11.896;2023-04-06T10:06:02;10.32;;;5.72;;
33266;SDS011;19638;49.080;11.896;2023-04-06T10:10:10;9.00;;;5.88;;
33266;SDS011;19638;49.080;11.896;2023-04-06T10:14:16;8.63;;;5.82;;
33266;SDS011;19638;49.080;11.896;2023-04-06T10:18:24;8.35;;;5.80;;
33266;SDS011;19638;49.080;11.896;2023-04-06T10:22:29;8.65;;;6.22;;
33266;SDS011;19638;49.080;11.896;2023-04-06T10:26:40;8.45;;;5.55;;
33266;SDS011;19638;49.080;11.896;2023-04-06T10:30:44;8.57;;;6.10;;
33266;SDS011;19638;49.080;11.896;2023-04-06T10:34:48;8.65;;;5.05;;
33266;SDS011;19638;49.080;11.896;2023-04-06T10:38:54;8.38;;;6.50;;
33266;SDS011;19638;49.080;11.896;2023-04-06T10:43:09;10.95;;;6.00;;
33266;SDS011;19638;49.080;11.896;2023-04-06T10:47:15;8.38;;;5.75;;
33266;SDS011;19638;49.080;11.896;2023-04-06T10:51:24;7.40;;;5.72;;
33266;SDS011;19638;49.080;11.896;2023-04-06T10:55:31;9.32;;;5.78;;
33266;SDS011;19638;49.080;11.896;2023-04-06T10:59:41;9.82;;;6.35;;
33266;SDS011;19638;49.080;11.896;2023-04-06T11:03:45;8.05;;;5.72;;
33266;SDS011;19638;49.080;11.896;2023-04-06T11:07:49;6.70;;;6.00;;
33266;SDS011;19638;49.080;11.896;2023-04-06T11:11:52;8.75;;;6.18;;
33266;SDS011;19638;49.080;11.896;2023-04-06T11:16:00;11.45;;;5.95;;
33266;SDS011;19638;49.080;11.896;2023-04-06T11:20:09;9.20;;;6.22;;
33266;SDS011;19638;49.080;11.896;2023-04-06T11:24:15;8.45;;;5.93;;
33266;SDS011;19638;49.080;11.896;2023-04-06T11:28:21;9.20;;;6.53;;
33266;SDS011;19638;49.080;11.896;2023-04-06T11:32:26;9.45;;;5.97;;
33266;SDS011;19638;49.080;11.896;2023-04-06T11:36:32;6.57;;;5.50;;
33266;SDS011;19638;49.080;11.896;2023-04-06T11:40:38;7.93;;;5.90;;
33266;SDS011;19638;49.080;11.896;2023-04-06T11:44:42;7.18;;;5.78;;
33266;SDS011;19638;49.080;11.896;2023-04-06T11:48:49;8.32;;;6.40;;
33266;SDS011;19638;49.080;11.896;2023-04-06T11:53:00;11.13;;;6.05;;
33266;SDS011;19638;49.080;11.896;2023-04-06T11:57:04;7.05;;;5.13;;
33266;SDS011;19638;49.080;11.896;2023-04-06T12:01:07;7.75;;;5.85;;
33266;SDS011;19638;49.080;11.896;2023-04-06T12:05:14;7.35;;;5.15;;
33266;SDS011;19638;49.080;11.896;2023-04-06T12:09:17;11.00;;;6.55;;
33266;SDS011;19638;49.080;11.896;2023-04-06T12:13:20;10.32;;;6.50;;
33266;SDS011;19638;49.080;11.896;2023-04-06T12:17:26;7.03;;;5.35;;
33266;SDS011;19638;49.080;11.896;2023-04-06T12:21:32;9.10;;;5.75;;
33266;SDS011;19638;49.080;11.896;2023-04-06T12:25:42;8.60;;;5.95;;
33266;SDS011;19638;49.080;11.896;2023-04-06T12:29:45;9.95;;;6.18;;
33266;SDS011;19638;49.080;11.896;2023-04-06T12:33:52;8.38;;;6.00;;
33266;SDS011;19638;49.080;11.896;2023-04-06T12:37:59;8.02;;;5.57;;
33266;SDS011;19638;49.080;11.896;2023-04-06T12:42:02;6.03;;;5.28;;
33266;SDS011;19638;49.080;11.896;2023-04-06T12:46:06;7.45;;;5.00;;
33266;SDS011;19638;49.080;11.896;2023-04-06T12:50:11;6.40;;;5.10;;
33266;SDS011;19638;49.080;11.896;2023-04-06T12:54:20;11.98;;;5.57;;
33266;SDS011;19638;49.080;11.896;2023-04-06T12:58:23;7.03;;;5.40;;
33266;SDS011;19638;49.080;11.896;2023-04-06T13:02:27;9.68;;;5.72;;
33266;SDS011;19638;49.080;11.896;2023-04-06T13:06:32;5.22;;;4.70;;
33266;SDS011;19638;49.080;11.896;2023-04-06T13:10:38;7.68;;;5.18;;
33266;SDS011;19638;49.080;11.896;2023-04-06T13:14:45;5.55;;;4.97;;
33266;SDS011;19638;49.080;11.896;2023-04-06T13:18:54;5.88;;;5.13;;
33266;SDS011;19638;49.080;11.896;2023-04-06T13:22:57;7.13;;;5.25;;
33266;SDS011;19638;49.080;11.896;2023-04-06T13:27:02;5.40;;;4.82;;
33266;SDS011;19638;49.080;11.896;2023-04-06T13:31:05;9.52;;;5.07;;
33266;SDS011;19638;49.080;11.896;2023-04-06T13:35:11;8.05;;;5.63;;
33266;SDS011;19638;49.080;11.896;2023-04-06T13:39:14;9.40;;;5.50;;
33266;SDS011;19638;49.080;11.896;2023-04-06T13:43:19;8.05;;;5.32;;
33266;SDS011;19638;49.080;11.896;2023-04-06T13:47:25;6.00;;;4.78;;
33266;SDS011;19638;49.080;11.896;2023-04-06T13:51:29;7.75;;;5.20;;
33266;SDS011;19638;49.080;11.896;2023-04-06T13:55:35;7.13;;;5.30;;
33266;SDS011;19638;49.080;11.896;2023-04-06T13:59:45;5.78;;;5.13;;
33266;SDS011;19638;49.080;11.896;2023-04-06T14:03:48;7.43;;;5.28;;
33266;SDS011;19638;49.080;11.896;2023-04-06T14:07:51;7.45;;;5.15;;
33266;SDS011;19638;49.080;11.896;2023-04-06T14:11:54;5.30;;;4.65;;
33266;SDS011;19638;49.080;11.896;2023-04-06T14:16:00;5.57;;;4.95;;
33266;SDS011;19638;49.080;11.896;2023-04-06T14:20:06;5.53;;;4.68;;
33266;SDS011;19638;49.080;11.896;2023-04-06T14:24:24;9.02;;;4.80;;
33266;SDS011;19638;49.080;11.896;2023-04-06T14:28:27;5.18;;;4.60;;
33266;SDS011;19638;49.080;11.896;2023-04-06T14:32:32;9.32;;;5.43;;
33266;SDS011;19638;49.080;11.896;2023-04-06T14:36:35;8.20;;;5.18;;
33266;SDS011;19638;49.080;11.896;2023-04-06T14:40:48;6.53;;;5.20;;
33266;SDS011;19638;49.080;11.896;2023-04-06T14:44:53;5.90;;;4.97;;
33266;SDS011;19638;49.080;11.896;2023-04-06T14:48:57;8.30;;;5.80;;
33266;SDS011;19638;49.080;11.896;2023-04-06T14:53:04;7.22;;;5.50;;
33266;SDS011;19638;49.080;11.896;2023-04-06T14:57:09;8.75;;;5.32;;
33266;SDS011;19638;49.080;11.896;2023-04-06T15:01:12;8.70;;;5.85;;
33266;SDS011;19638;49.080;11.896;2023-04-06T15:05:19;8.23;;;6.00;;
33266;SDS011;19638;49.080;11.896;2023-04-06T15:09:24;6.75;;;5.32;;
33266;SDS011;19638;49.080;11.896;2023-04-06T15:13:29;8.85;;;5.15;;
33266;SDS011;19638;49.080;11.896;2023-04-06T15:17:34;7.13;;;5.30;;
33266;SDS011;19638;49.080;11.896;2023-04-06T15:21:38;5.57;;;5.07;;
33266;SDS011;19638;49.080;11.896;2023-04-06T15:25:46;9.60;;;5.22;;
33266;SDS011;19638;49.080;11.896;2023-04-06T15:29:49;6.75;;;5.50;;
33266;SDS011;19638;49.080;11.896;2023-04-06T15:33:55;8.63;;;6.28;;
33266;SDS011;19638;49.080;11.896;2023-04-06T15:38:00;6.57;;;5.18;;
33266;SDS011;19638;49.080;11.896;2023-04-06T15:42:04;9.95;;;6.50;;
33266;SDS011;19638;49.080;11.896;2023-04-06T15:46:10;12.63;;;6.10;;
33266;SDS011;19638;49.080;11.896;2023-04-06T15:50:13;6.47;;;5.30;;
33266;SDS011;19638;49.080;11.896;2023-04-06T15:54:18;5.75;;;5.15;;
33266;SDS011;19638;49.080;11.896;2023-04-06T15:58:24;9.90;;;5.80;;
33266;SDS011;19638;49.080;11.896;2023-04-06T16:02:35;6.05;;;5.45;;
33266;SDS011;19638;49.080;11.896;2023-04-06T16:06:39;6.40;;;5.28;;
33266;SDS011;19638;49.080;11.896;2023-04-06T16:10:44;7.88;;;5.88;;
33266;SDS011;19638;49.080;11.896;2023-04-06T16:14:47;7.93;;;6.07;;
33266;SDS011;19638;49.080;11.896;2023-04-06T16:18:50;10.23;;;6.20;;
33266;SDS011;19638;49.080;11.896;2023-04-06T16:22:54;7.88;;;5.90;;
33266;SDS011;19638;49.080;11.896;2023-04-06T16:26:59;7.03;;;6.25;;
33266;SDS011;19638;49.080;11.896;2023-04-06T16:31:02;7.45;;;6.03;;
33266;SDS011;19638;49.080;11.896;2023-04-06T16:35:05;6.45;;;5.72;;
33266;SDS011;19638;49.080;11.896;2023-04-06T16:39:08;10.18;;;6.60;;
33266;SDS011;19638;49.080;11.896;2023-04-06T16:43:22;6.10;;;5.50;;
33266;SDS011;19638;49.080;11.896;2023-04-06T16:47:26;8.27;;;6.25;;
33266;SDS011;19638;49.080;11.896;2023-04-06T16:51:29;6.95;;;5.50;;
33266;SDS011;19638;49.080;11.896;2023-04-06T16:55:33;8.40;;;6.32;;
33266;SDS011;19638;49.080;11.896;2023-04-06T16:59:42;9.68;;;7.15;;
33266;SDS011;19638;49.080;11.896;2023-04-06T17:03:46;11.18;;;6.80;;
33266;SDS011;19638;49.080;11.896;2023-04-06T17:07:50;10.20;;;6.95;;
33266;SDS011;19638;49.080;11.896;2023-04-06T17:11:55;13.07;;;7.18;;
33266;SDS011;19638;49.080;11.896;2023-04-06T17:16:00;11.73;;;6.68;;
33266;SDS011;19638;49.080;11.896;2023-04-06T17:20:04;9.82;;;7.25;;
33266;SDS011;19638;49.080;11.896;2023-04-06T17:24:08;7.25;;;6.32;;
33266;SDS011;19638;49.080;11.896;2023-04-06T17:28:12;9.70;;;6.10;;
33266;SDS011;19638;49.080;11.896;2023-04-06T17:32:20;10.48;;;6.63;;
33266;SDS011;19638;49.080;11.896;2023-04-06T17:36:24;11.75;;;6.55;;
33266;SDS011;19638;49.080;11.896;2023-04-06T17:40:30;9.13;;;6.55;;
33266;SDS011;19638;49.080;11.896;2023-04-06T17:44:38;9.00;;;6.80;;
33266;SDS011;19638;49.080;11.896;2023-04-06T17:48:43;9.88;;;6.65;;
33266;SDS011;19638;49.080;11.896;2023-04-06T17:52:49;9.73;;;6.67;;
33266;SDS011;19638;49.080;11.896;2023-04-06T17:56:53;12.23;;;7.27;;
33266;SDS011;19638;49.080;11.896;2023-04-06T18:01:04;11.90;;;6.80;;
33266;SDS011;19638;49.080;11.896;2023-04-06T18:05:12;9.27;;;6.40;;
33266;SDS011;19638;49.080;11.896;2023-04-06T18:09:17;10.27;;;6.80;;
33266;SDS011;19638;49.080;11.896;2023-04-06T18:13:21;11.43;;;6.77;;
33266;SDS011;19638;49.080;11.896;2023-04-06T18:17:24;10.87;;;6.53;;
33266;SDS011;19638;49.080;11.896;2023-04-06T18:21:28;11.50;;;7.60;;
33266;SDS011;19638;49.080;11.896;2023-04-06T18:25:36;15.53;;;7.30;;
33266;SDS011;19638;49.080;11.896;2023-04-06T18:29:39;12.53;;;6.47;;
33266;SDS011;19638;49.080;11.896;2023-04-06T18:33:44;13.33;;;7.47;;
33266;SDS011;19638;49.080;11.896;2023-04-06T18:37:51;12.70;;;7.70;;
33266;SDS011;19638;49.080;11.896;2023-04-06T18:41:56;12.47;;;7.20;;
33266;SDS011;19638;49.080;11.896;2023-04-06T18:45:59;11.93;;;7.77;;
33266;SDS011;19638;49.080;11.896;2023-04-06T18:50:02;17.43;;;8.83;;
33266;SDS011;19638;49.080;11.896;2023-04-06T18:54:09;21.77;;;8.90;;
33266;SDS011;19638;49.080;11.896;2023-04-06T18:58:17;15.47;;;8.60;;
33266;SDS011;19638;49.080;11.896;2023-04-06T19:02:20;16.30;;;8.87;;
33266;SDS011;19638;49.080;11.896;2023-04-06T19:06:26;13.23;;;8.07;;
33266;SDS011;19638;49.080;11.896;2023-04-06T19:10:38;14.10;;;8.57;;
33266;SDS011;19638;49.080;11.896;2023-04-06T19:14:43;20.57;;;9.97;;
33266;SDS011;19638;49.080;11.896;2023-04-06T19:18:51;15.40;;;8.80;;
33266;SDS011;19638;49.080;11.896;2023-04-06T19:22:56;18.93;;;9.70;;
33266;SDS011;19638;49.080;11.896;2023-04-06T19:27:02;17.47;;;9.37;;
33266;SDS011;19638;49.080;11.896;2023-04-06T19:31:05;20.33;;;10.93;;
33266;SDS011;19638;49.080;11.896;2023-04-06T19:35:10;20.33;;;11.17;;
33266;SDS011;19638;49.080;11.896;2023-04-06T19:39:13;25.93;;;12.33;;
33266;SDS011;19638;49.080;11.896;2023-04-06T19:43:18;21.33;;;11.67;;
33266;SDS011;19638;49.080;11.896;2023-04-06T19:47:21;26.07;;;11.33;;
33266;SDS011;19638;49.080;11.896;2023-04-06T19:51:24;25.93;;;11.67;;
33266;SDS011;19638;49.080;11.896;2023-04-06T19:55:27;19.50;;;10.73;;
33266;SDS011;19638;49.080;11.896;2023-04-06T19:59:32;25.83;;;11.90;;
33266;SDS011;19638;49.080;11.896;2023-04-06T20:03:35;21.20;;;11.07;;
33266;SDS011;19638;49.080;11.896;2023-04-06T20:07:39;20.77;;;10.40;;
33266;SDS011;19638;49.080;11.896;2023-04-06T20:11:46;18.93;;;10.60;;
33266;SDS011;19638;49.080;11.896;2023-04-06T20:15:50;22.23;;;10.33;;
33266;SDS011;19638;49.080;11.896;2023-04-06T20:19:53;14.33;;;9.27;;
33266;SDS011;19638;49.080;11.896;2023-04-06T20:23:56;14.97;;;8.77;;
33266;SDS011;19638;49.080;11.896;2023-04-06T20:27:59;20.50;;;9.77;;
33266;SDS011;19638;49.080;11.896;2023-04-06T20:32:10;24.73;;;11.30;;
33266;SDS011;19638;49.080;11.896;2023-04-06T20:36:14;25.07;;;12.97;;
33266;SDS011;19638;49.080;11.896;2023-04-06T20:40:17;21.73;;;10.47;;
33266;SDS011;19638;49.080;11.896;2023-04-06T20:44:25;23.47;;;10.70;;
33266;SDS011;19638;49.080;11.896;2023-04-06T20:48:33;21.40;;;11.27;;
33266;SDS011;19638;49.080;11.896;2023-04-06T20:52:45;22.80;;;12.20;;
33266;SDS011;19638;49.080;11.896;2023-04-06T20:56:49;19.73;;;11.13;;
33266;SDS011;19638;49.080;11.896;2023-04-06T21:00:56;21.60;;;11.60;;
33266;SDS011;19638;49.080;11.896;2023-04-06T21:05:06;21.73;;;12.13;;
33266;SDS011;19638;49.080;11.896;2023-04-06T21:09:13;20.63;;;11.93;;
33266;SDS011;19638;49.080;11.896;2023-04-06T21:13:25;22.97;;;12.20;;
33266;SDS011;19638;49.080;11.896;2023-04-06T21:17:28;22.73;;;11.60;;
33266;SDS011;19638;49.080;11.896;2023-04-06T21:21:33;18.27;;;11.40;;
33266;SDS011;19638;49.080;11.896;2023-04-06T21:25:39;22.30;;;11.53;;
33266;SDS011;19638;49.080;11.896;2023-04-06T21:29:41;20.57;;;11.37;;
33266;SDS011;19638;49.080;11.896;2023-04-06T21:33:45;23.70;;;11.77;;
33266;SDS011;19638;49.080;11.896;2023-04-06T21:37:49;22.73;;;12.17;;
33266;SDS011;19638;49.080;11.896;2023-04-06T21:41:52;25.53;;;12.27;;
33266;SDS011;19638;49.080;11.896;2023-04-06T21:45:55;23.73;;;12.03;;
33266;SDS011;19638;49.080;11.896;2023-04-06T21:49:59;25.27;;;11.47;;
33266;SDS011;19638;49.080;11.896;2023-04-06T21:54:04;21.73;;;11.47;;
33266;SDS011;19638;49.080;11.896;2023-04-06T21:58:10;22.60;;;12.07;;
33266;SDS011;19638;49.080;11.896;2023-04-06T22:02:13;22.90;;;11.87;;
33266;SDS011;19638;49.080;11.896;2023-04-06T22:06:19;22.80;;;12.20;;
33266;SDS011;19638;49.080;11.896;2023-04-06T22:10:25;27.50;;;12.40;;
33266;SDS011;19638;49.080;11.896;2023-04-06T22:14:28;26.00;;;12.60;;
33266;SDS011;19638;49.080;11.896;2023-04-06T22:18:32;25.20;;;12.10;;
33266;SDS011;19638;49.080;11.896;2023-04-06T22:22:39;22.20;;;11.43;;
33266;SDS011;19638;49.080;11.896;2023-04-06T22:26:47;21.30;;;11.67;;
33266;SDS011;19638;49.080;11.896;2023-04-06T22:30:52;21.77;;;12.27;;
33266;SDS011;19638;49.080;11.896;2023-04-06T22:34:55;25.23;;;12.50;;
33266;SDS011;19638;49.080;11.896;2023-04-06T22:38:59;26.90;;;12.67;;
33266;SDS011;19638;49.080;11.896;2023-04-06T22:43:06;23.50;;;12.37;;
33266;SDS011;19638;49.080;11.896;2023-04-06T22:47:09;28.20;;;12.80;;
33266;SDS011;19638;49.080;11.896;2023-04-06T22:51:18;26.23;;;12.67;;
33266;SDS011;19638;49.080;11.896;2023-04-06T22:55:23;27.97;;;13.40;;
33266;SDS011;19638;49.080;11.896;2023-04-06T22:59:27;27.77;;;15.30;;
33266;SDS011;19638;49.080;11.896;2023-04-06T23:03:43;28.03;;;13.70;;
33266;SDS011;19638;49.080;11.896;2023-04-06T23:07:46;24.27;;;12.73;;
33266;SDS011;19638;49.080;11.896;2023-04-06T23:11:49;34.50;;;14.33;;
33266;SDS011;19638;49.080;11.896;2023-04-06T23:15:53;25.17;;;12.73;;
33266;SDS011;19638;49.080;11.896;2023-04-06T23:19:56;24.60;;;12.77;;
33266;SDS011;19638;49.080;11.896;2023-04-06T23:23:59;25.57;;;13.13;;
33266;SDS011;19638;49.080;11.896;2023-04-06T23:28:04;24.87;;;12.63;;
33266;SDS011;19638;49.080;11.896;2023-04-06T23:32:08;24.40;;;12.83;;
33266;SDS011;19638;49.080;11.896;2023-04-06T23:36:17;26.07;;;12.13;;
33266;SDS011;19638;49.080;11.896;2023-04-06T23:40:20;27.07;;;13.40;;
33266;SDS011;19638;49.080;11.896;2023-04-06T23:44:31;28.80;;;12.63;;
33266;SDS011;19638;49.080;11.896;2023-04-06T23:48:35;24.30;;;12.60;;
33266;SDS011;19638;49.080;11.896;2023-04-06T23:52:41;26.23;;;12.80;;
33266;SDS011;19638;49.080;11.896;2023-04-06T23:56:46;27.40;;;13.07;;
